createdAt,value
2019-03-25T00:02:15.576Z,11.33
2019-03-25T00:04:47.945Z,10.00
2019-03-25T00:07:21.339Z,11.95
2019-03-25T00:09:53.971Z,9.78
2019-03-25T00:12:26.291Z,9.80
2019-03-25T00:14:59.336Z,11.37
2019-03-25T00:17:32.154Z,12.93
2019-03-25T00:20:06.050Z,11.17
2019-03-25T00:22:40.084Z,11.17
2019-03-25T00:25:12.703Z,10.58
2019-03-25T00:27:45.188Z,12.13
2019-03-25T00:30:17.471Z,13.50
2019-03-25T00:32:51.483Z,10.10
2019-03-25T00:35:24.346Z,13.17
2019-03-25T00:37:59.498Z,12.57
2019-03-25T00:40:33.590Z,9.60
2019-03-25T00:43:07.982Z,10.85
2019-03-25T00:45:40.617Z,11.50
2019-03-25T00:48:15.345Z,10.37
2019-03-25T00:50:47.774Z,9.93
2019-03-25T00:53:20.759Z,10.80
2019-03-25T00:55:54.694Z,12.70
2019-03-25T00:58:28.976Z,11.17
2019-03-25T01:01:02.278Z,13.67
2019-03-25T01:03:35.379Z,15.73
2019-03-25T01:06:08.271Z,15.47
2019-03-25T01:08:41.239Z,16.40
2019-03-25T01:11:13.575Z,18.52
2019-03-25T01:13:47.728Z,22.67
2019-03-25T01:16:22.976Z,16.57
2019-03-25T01:18:55.681Z,19.23
2019-03-25T01:21:28.542Z,16.53
2019-03-25T01:24:01.094Z,15.30
2019-03-25T01:26:33.449Z,14.17
2019-03-25T01:29:08.145Z,16.07
2019-03-25T01:31:40.709Z,15.08
2019-03-25T01:34:13.058Z,16.57
2019-03-25T01:36:45.779Z,14.47
2019-03-25T01:39:18.100Z,17.17
2019-03-25T01:41:50.807Z,13.77
2019-03-25T01:44:23.526Z,15.00
2019-03-25T01:46:57.110Z,16.43
2019-03-25T01:49:29.832Z,16.33
2019-03-25T01:52:02.197Z,15.17
2019-03-25T01:54:35.889Z,15.87
2019-03-25T01:57:08.290Z,16.07
2019-03-25T01:59:41.234Z,14.27
2019-03-25T02:02:13.421Z,14.93
2019-03-25T02:04:46.493Z,17.37
2019-03-25T02:07:20.558Z,15.57
2019-03-25T02:09:52.901Z,14.07
2019-03-25T02:12:25.571Z,11.97
2019-03-25T02:14:57.933Z,13.33
2019-03-25T02:17:31.124Z,14.87
2019-03-25T02:20:05.186Z,12.27
2019-03-25T02:22:37.707Z,14.17
2019-03-25T02:25:10.093Z,13.30
2019-03-25T02:27:42.410Z,12.23
2019-03-25T02:30:16.408Z,11.55
2019-03-25T02:32:48.963Z,13.23
2019-03-25T02:35:21.323Z,10.68
2019-03-25T02:37:55.238Z,14.28
2019-03-25T02:40:27.853Z,10.93
2019-03-25T02:43:03.419Z,13.40
2019-03-25T02:45:36.041Z,10.70
2019-03-25T02:48:08.423Z,13.50
2019-03-25T02:50:41.080Z,14.17
2019-03-25T02:53:13.290Z,12.07
2019-03-25T02:55:45.548Z,14.53
2019-03-25T02:58:17.693Z,15.75
2019-03-25T03:00:50.499Z,15.30
2019-03-25T03:03:22.832Z,16.97
2019-03-25T03:05:56.009Z,16.07
2019-03-25T03:08:28.649Z,21.13
2019-03-25T03:11:01.017Z,19.37
2019-03-25T03:13:33.749Z,18.17
2019-03-25T03:16:06.999Z,20.35
2019-03-25T03:18:39.334Z,17.50
2019-03-25T03:21:11.923Z,19.67
2019-03-25T03:23:45.022Z,16.17
2019-03-25T03:26:20.116Z,17.80
2019-03-25T03:28:52.700Z,18.70
2019-03-25T03:31:24.939Z,20.00
2019-03-25T03:33:57.270Z,20.63
2019-03-25T03:36:34.240Z,20.47
2019-03-25T03:39:08.632Z,21.50
2019-03-25T03:41:40.907Z,21.00
2019-03-25T03:44:13.708Z,22.55
2019-03-25T03:46:46.410Z,21.93
2019-03-25T03:49:18.796Z,22.93
2019-03-25T03:51:53.641Z,24.77
2019-03-25T03:54:26.327Z,22.73
2019-03-25T03:57:00.206Z,21.47
2019-03-25T03:59:33.098Z,26.43
2019-03-25T04:02:06.627Z,25.92
2019-03-25T04:04:39.029Z,28.50
2019-03-25T04:07:11.353Z,27.95
2019-03-25T04:09:43.850Z,23.87
2019-03-25T04:12:17.086Z,28.53
2019-03-25T04:14:49.398Z,26.23
2019-03-25T04:17:21.616Z,26.70
2019-03-25T04:19:54.688Z,29.40
2019-03-25T04:22:27.843Z,27.13
2019-03-25T04:25:00.092Z,25.90
2019-03-25T04:27:33.504Z,30.17
2019-03-25T04:30:07.307Z,26.77
2019-03-25T04:32:39.564Z,25.77
2019-03-25T04:35:12.247Z,30.57
2019-03-25T04:37:46.178Z,30.60
2019-03-25T04:40:19.251Z,24.23
2019-03-25T04:42:51.784Z,24.87
2019-03-25T04:45:24.315Z,30.43
2019-03-25T04:47:56.684Z,26.37
2019-03-25T04:50:29.252Z,26.70
2019-03-25T04:53:01.555Z,30.10
2019-03-25T04:55:33.954Z,27.07
2019-03-25T04:58:06.912Z,23.55
2019-03-25T05:00:40.103Z,28.52
2019-03-25T05:03:12.523Z,23.97
2019-03-25T05:05:45.268Z,24.63
2019-03-25T05:08:18.221Z,21.93
2019-03-25T05:10:50.689Z,24.83
2019-03-25T05:13:22.916Z,25.53
2019-03-25T05:15:55.128Z,29.73
2019-03-25T05:18:27.512Z,28.77
2019-03-25T05:20:59.786Z,31.27
2019-03-25T05:23:33.338Z,32.00
2019-03-25T05:26:06.525Z,30.80
2019-03-25T05:28:39.311Z,28.67
2019-03-25T05:31:12.429Z,27.87
2019-03-25T05:33:45.134Z,32.73
2019-03-25T05:36:17.768Z,31.50
2019-03-25T05:38:52.224Z,27.73
2019-03-25T05:41:24.641Z,34.47
2019-03-25T05:43:57.064Z,31.70
2019-03-25T05:46:29.613Z,34.33
2019-03-25T05:49:03.927Z,34.27
2019-03-25T05:51:36.801Z,39.97
2019-03-25T05:54:09.150Z,41.00
2019-03-25T05:56:41.481Z,33.30
2019-03-25T05:59:14.038Z,35.05
2019-03-25T06:01:46.656Z,35.08
2019-03-25T06:04:18.832Z,36.77
2019-03-25T06:06:52.197Z,37.50
2019-03-25T06:09:26.393Z,33.27
2019-03-25T06:11:58.743Z,29.97
2019-03-25T06:14:31.094Z,34.63
2019-03-25T06:17:04.290Z,38.23
2019-03-25T06:19:36.590Z,34.80
2019-03-25T06:22:08.881Z,36.80
2019-03-25T06:24:41.696Z,37.00
2019-03-25T06:27:14.698Z,34.35
2019-03-25T06:29:48.445Z,36.60
2019-03-25T06:32:20.923Z,35.90
2019-03-25T06:34:53.107Z,37.70
2019-03-25T06:37:27.508Z,40.17
2019-03-25T06:40:01.623Z,35.33
2019-03-25T06:42:34.966Z,39.90
2019-03-25T06:45:09.295Z,36.93
2019-03-25T06:47:43.815Z,38.40
2019-03-25T06:50:16.968Z,31.87
2019-03-25T06:52:49.627Z,30.43
2019-03-25T06:55:22.615Z,31.27
2019-03-25T06:57:56.019Z,31.13
2019-03-25T07:00:28.374Z,32.30
2019-03-25T07:03:01.904Z,31.93
2019-03-25T07:05:35.758Z,29.70
2019-03-25T07:08:08.501Z,34.43
2019-03-25T07:10:40.710Z,25.10
2019-03-25T07:13:12.940Z,28.40
2019-03-25T07:15:45.163Z,28.87
2019-03-25T07:18:17.796Z,28.77
2019-03-25T07:20:50.036Z,29.13
2019-03-25T07:23:22.491Z,26.90
2019-03-25T07:25:57.283Z,30.67
2019-03-25T07:28:29.674Z,32.55
2019-03-25T07:31:03.839Z,29.47
2019-03-25T07:33:36.163Z,30.87
2019-03-25T07:36:08.665Z,32.83
2019-03-25T07:38:41.185Z,24.63
2019-03-25T07:41:14.349Z,29.95
2019-03-25T07:43:48.353Z,28.07
2019-03-25T07:46:20.662Z,27.90
2019-03-25T07:48:53.329Z,28.30
2019-03-25T07:51:26.797Z,32.73
2019-03-25T07:53:59.120Z,30.53
2019-03-25T07:56:31.735Z,28.85
2019-03-25T07:59:04.424Z,24.53
2019-03-25T08:01:36.796Z,25.17
2019-03-25T08:04:10.347Z,31.70
2019-03-25T08:06:43.616Z,24.37
2019-03-25T08:09:16.141Z,24.13
2019-03-25T08:11:49.441Z,24.17
2019-03-25T08:14:22.736Z,23.80
2019-03-25T08:16:55.861Z,22.97
2019-03-25T08:19:28.048Z,19.80
2019-03-25T08:22:00.872Z,20.15
2019-03-25T08:24:33.686Z,14.67
2019-03-25T08:27:06.803Z,13.05
2019-03-25T08:29:40.363Z,15.33
2019-03-25T08:32:13.141Z,16.02
2019-03-25T08:34:45.488Z,17.50
2019-03-25T08:37:18.105Z,19.47
2019-03-25T08:39:51.101Z,18.67
2019-03-25T08:42:24.372Z,20.57
2019-03-25T08:44:56.572Z,23.50
2019-03-25T08:47:28.788Z,18.87
2019-03-25T08:50:01.072Z,19.00
2019-03-25T08:52:33.539Z,16.53
2019-03-25T08:55:07.774Z,20.02
2019-03-25T08:57:40.463Z,16.23
2019-03-25T09:00:13.468Z,18.57
2019-03-25T09:02:46.160Z,17.93
2019-03-25T09:05:20.809Z,19.50
2019-03-25T09:07:53.591Z,15.25
2019-03-25T09:10:26.176Z,18.50
2019-03-25T09:13:00.689Z,21.57
2019-03-25T09:15:34.060Z,18.87
2019-03-25T09:18:06.868Z,18.15
2019-03-25T09:20:39.238Z,23.27
2019-03-25T09:23:11.812Z,19.30
2019-03-25T09:25:44.050Z,21.07
2019-03-25T09:28:24.127Z,20.45
2019-03-25T09:31:20.638Z,21.77
2019-03-25T09:33:52.923Z,16.87
2019-03-25T09:36:25.963Z,19.57
2019-03-25T09:39:00.087Z,22.73
2019-03-25T09:41:32.730Z,20.03
2019-03-25T09:44:04.992Z,19.57
2019-03-25T09:46:37.849Z,20.60
2019-03-25T09:49:10.271Z,20.33
2019-03-25T09:51:42.753Z,22.17
2019-03-25T09:54:16.220Z,20.77
2019-03-25T09:56:48.625Z,24.93
2019-03-25T09:59:21.213Z,24.02
2019-03-25T10:01:53.692Z,22.70
2019-03-25T10:04:26.272Z,22.50
2019-03-25T10:06:58.505Z,14.30
2019-03-25T10:09:31.635Z,17.20
2019-03-25T10:12:04.104Z,15.87
2019-03-25T10:14:36.953Z,17.40
2019-03-25T10:17:09.886Z,20.33
2019-03-25T10:19:42.240Z,15.57
2019-03-25T10:22:14.797Z,17.07
2019-03-25T10:24:46.991Z,15.50
2019-03-25T10:27:19.343Z,15.50
2019-03-25T10:29:51.649Z,16.00
2019-03-25T10:32:24.153Z,16.23
2019-03-25T10:34:56.631Z,17.23
2019-03-25T10:37:29.728Z,18.50
2019-03-25T10:40:02.006Z,18.63
2019-03-25T10:42:34.859Z,20.27
2019-03-25T10:45:07.851Z,21.37
2019-03-25T10:47:40.535Z,24.87
2019-03-25T10:50:13.415Z,22.27
2019-03-25T10:52:46.301Z,25.40
2019-03-25T10:55:19.020Z,21.90
2019-03-25T10:57:51.506Z,19.10
2019-03-25T11:00:24.743Z,17.50
2019-03-25T11:02:57.745Z,15.20
2019-03-25T11:05:30.319Z,18.30
2019-03-25T11:08:03.002Z,15.13
2019-03-25T11:10:35.464Z,14.73
2019-03-25T11:13:09.451Z,14.27
2019-03-25T11:15:41.898Z,15.67
2019-03-25T11:18:14.554Z,16.27
2019-03-25T11:20:47.048Z,17.03
2019-03-25T11:23:20.276Z,15.70
2019-03-25T11:25:52.578Z,18.37
2019-03-25T11:28:25.217Z,15.73
2019-03-25T11:30:59.344Z,17.20
2019-03-25T11:33:36.522Z,15.53
2019-03-25T11:36:08.880Z,15.13
2019-03-25T11:38:41.232Z,14.70
2019-03-25T11:41:13.982Z,16.32
2019-03-25T11:43:46.611Z,13.43
2019-03-25T11:46:20.051Z,12.90
2019-03-25T11:48:52.703Z,13.80
2019-03-25T11:51:25.344Z,14.07
2019-03-25T11:53:58.682Z,14.30
2019-03-25T11:56:31.080Z,16.80
2019-03-25T11:59:04.521Z,16.17
2019-03-25T12:01:38.053Z,14.50
2019-03-25T12:04:10.649Z,14.97
2019-03-25T12:06:43.079Z,15.93
2019-03-25T12:09:15.595Z,12.80
2019-03-25T12:11:47.984Z,12.83
2019-03-25T12:14:20.412Z,12.83
2019-03-25T12:16:52.716Z,13.97
2019-03-25T12:19:25.333Z,13.27
2019-03-25T12:21:58.049Z,12.97
2019-03-25T12:24:30.357Z,17.50
2019-03-25T12:27:02.759Z,14.07
2019-03-25T12:29:35.316Z,14.37
2019-03-25T12:32:07.698Z,17.43
2019-03-25T12:34:43.208Z,15.37
2019-03-25T12:37:15.606Z,14.87
2019-03-25T12:39:47.949Z,17.87
2019-03-25T12:42:20.158Z,15.73
2019-03-25T12:44:52.855Z,15.13
2019-03-25T12:47:25.643Z,19.40
2019-03-25T12:49:58.350Z,18.30
2019-03-25T12:52:30.563Z,18.43
2019-03-25T12:55:03.072Z,17.50
2019-03-25T12:57:35.517Z,19.10
2019-03-25T13:00:08.924Z,15.80
2019-03-25T13:02:41.203Z,13.67
2019-03-25T13:05:14.057Z,13.20
2019-03-25T13:07:47.407Z,13.20
2019-03-25T13:10:19.871Z,13.03
2019-03-25T13:12:52.177Z,13.50
2019-03-25T13:15:25.098Z,14.93
2019-03-25T13:17:59.749Z,14.53
2019-03-25T13:20:32.110Z,12.97
2019-03-25T13:23:04.834Z,13.47
2019-03-25T13:25:39.520Z,13.33
2019-03-25T13:28:12.185Z,12.40
2019-03-25T13:30:44.563Z,11.70
2019-03-25T13:33:17.183Z,9.25
2019-03-25T13:35:50.980Z,9.13
2019-03-25T13:38:25.297Z,9.70
2019-03-25T13:40:57.875Z,10.37
2019-03-25T13:43:31.378Z,10.43
2019-03-25T13:46:05.612Z,10.50
2019-03-25T13:48:38.146Z,11.37
2019-03-25T13:51:10.573Z,11.80
2019-03-25T13:53:42.953Z,11.20
2019-03-25T13:56:16.173Z,12.05
2019-03-25T13:58:49.302Z,11.38
2019-03-25T14:01:22.072Z,12.33
2019-03-25T14:03:54.442Z,12.53
2019-03-25T14:06:26.736Z,11.97
2019-03-25T14:08:58.895Z,11.73
2019-03-25T14:11:32.343Z,10.43
2019-03-25T14:14:04.602Z,12.90
2019-03-25T14:16:36.813Z,10.80
2019-03-25T14:19:11.556Z,11.17
2019-03-25T14:21:44.087Z,10.70
2019-03-25T14:24:18.320Z,11.28
2019-03-25T14:26:50.590Z,10.87
2019-03-25T14:29:24.969Z,11.20
2019-03-25T14:31:57.255Z,11.63
2019-03-25T14:34:29.945Z,12.20
2019-03-25T14:37:02.396Z,15.63
2019-03-25T14:39:34.988Z,13.15
2019-03-25T14:42:07.460Z,13.50
2019-03-25T14:44:41.057Z,13.17
2019-03-25T14:47:13.831Z,13.27
2019-03-25T14:49:46.599Z,12.77
2019-03-25T14:52:19.961Z,11.68
2019-03-25T14:54:54.064Z,13.17
2019-03-25T14:57:26.382Z,11.37
2019-03-25T14:59:58.914Z,11.03
2019-03-25T15:02:33.186Z,12.10
2019-03-25T15:05:05.676Z,12.27
2019-03-25T15:07:38.083Z,11.93
2019-03-25T15:10:11.082Z,11.07
2019-03-25T15:12:43.427Z,12.00
2019-03-25T15:15:15.753Z,12.90
2019-03-25T15:17:48.435Z,11.03
2019-03-25T15:20:21.723Z,13.07
2019-03-25T15:22:54.050Z,12.77
2019-03-25T15:25:26.296Z,12.83
2019-03-25T15:27:59.171Z,14.50
2019-03-25T15:30:36.154Z,11.83
2019-03-25T15:33:06.919Z,13.90
2019-03-25T15:35:39.491Z,13.63
2019-03-25T15:38:11.945Z,14.25
2019-03-25T15:40:44.738Z,16.17
2019-03-25T15:43:17.144Z,16.37
2019-03-25T15:45:52.186Z,15.88
2019-03-25T15:48:24.851Z,18.13
2019-03-25T15:50:57.668Z,17.17
2019-03-25T15:53:30.123Z,21.07
2019-03-25T15:56:02.876Z,17.30
2019-03-25T15:58:35.335Z,18.50
2019-03-25T16:01:07.770Z,19.23
2019-03-25T16:03:40.131Z,20.87
2019-03-25T16:06:12.541Z,15.83
2019-03-25T16:08:44.815Z,21.00
2019-03-25T16:11:17.098Z,17.45
2019-03-25T16:13:50.650Z,14.57
2019-03-25T16:16:25.296Z,17.67
2019-03-25T16:18:57.771Z,16.90
2019-03-25T16:21:30.002Z,15.47
2019-03-25T16:24:02.394Z,16.50
2019-03-25T16:26:34.579Z,14.93
2019-03-25T16:29:06.850Z,16.53
2019-03-25T16:31:39.110Z,17.03
2019-03-25T16:34:11.440Z,17.32
2019-03-25T16:36:43.609Z,18.63
2019-03-25T16:39:15.821Z,20.27
2019-03-25T16:41:48.099Z,20.80
2019-03-25T16:44:20.344Z,21.77
2019-03-25T16:46:52.589Z,21.60
2019-03-25T16:49:24.794Z,20.97
2019-03-25T16:51:57.040Z,18.93
2019-03-25T16:54:29.183Z,18.23
2019-03-25T16:57:01.578Z,15.67
2019-03-25T16:59:33.746Z,16.67
2019-03-25T17:02:06.432Z,16.35
2019-03-25T17:04:38.944Z,16.53
2019-03-25T17:07:11.302Z,18.55
2019-03-25T17:09:44.417Z,16.33
2019-03-25T17:12:17.185Z,16.60
2019-03-25T17:14:49.696Z,16.27
2019-03-25T17:17:22.224Z,18.40
2019-03-25T17:19:54.664Z,20.07
2019-03-25T17:22:53.488Z,20.77
2019-03-25T17:25:25.870Z,20.17
2019-03-25T17:27:58.381Z,21.87
2019-03-25T17:30:30.802Z,19.13
2019-03-25T17:33:03.347Z,18.00
2019-03-25T17:35:35.761Z,16.67
2019-03-25T17:38:08.028Z,12.73
2019-03-25T17:40:40.202Z,14.07
2019-03-25T17:43:12.416Z,14.50
2019-03-25T17:45:44.649Z,12.30
2019-03-25T17:48:17.024Z,12.73
2019-03-25T17:50:49.255Z,13.67
2019-03-25T17:53:21.867Z,12.63
2019-03-25T17:55:55.304Z,13.40
2019-03-25T17:58:27.676Z,13.78
2019-03-25T18:01:09.590Z,14.63
2019-03-25T18:03:42.004Z,15.33
2019-03-25T18:06:15.480Z,17.37
2019-03-25T18:08:47.811Z,18.13
2019-03-25T18:11:20.071Z,20.03
2019-03-25T18:13:52.517Z,18.67
2019-03-25T18:16:24.731Z,19.47
2019-03-25T18:18:58.682Z,18.47
2019-03-25T18:21:31.162Z,17.73
2019-03-25T18:24:05.220Z,19.60
2019-03-25T18:26:37.617Z,19.53
2019-03-25T18:29:10.699Z,20.83
2019-03-25T18:31:44.084Z,19.03
2019-03-25T18:34:16.472Z,16.87
2019-03-25T18:36:48.754Z,16.57
2019-03-25T18:39:20.910Z,16.33
2019-03-25T18:41:53.203Z,17.23
2019-03-25T18:44:26.146Z,19.73
2019-03-25T18:46:58.641Z,16.32
2019-03-25T18:49:30.968Z,16.97
2019-03-25T18:52:03.282Z,16.30
2019-03-25T18:54:35.473Z,15.32
2019-03-25T18:57:07.708Z,14.60
2019-03-25T18:59:39.848Z,11.60
2019-03-25T19:02:12.081Z,12.63
2019-03-25T19:04:44.446Z,12.50
2019-03-25T19:07:17.241Z,12.15
2019-03-25T19:09:51.020Z,12.03
2019-03-25T19:12:23.711Z,11.53
2019-03-25T19:14:55.958Z,10.93
2019-03-25T19:17:28.311Z,11.20
2019-03-25T19:20:00.867Z,10.73
2019-03-25T19:22:33.555Z,14.47
2019-03-25T19:25:06.823Z,10.75
2019-03-25T19:27:39.166Z,12.63
2019-03-25T19:30:11.883Z,10.50
2019-03-25T19:32:44.227Z,10.87
2019-03-25T19:35:16.731Z,12.98
2019-03-25T19:37:48.943Z,11.77
2019-03-25T19:40:21.130Z,12.90
2019-03-25T19:42:53.356Z,12.20
2019-03-25T19:45:25.585Z,13.50
2019-03-25T19:47:57.734Z,10.60
2019-03-25T19:50:29.938Z,11.63
2019-03-25T19:53:02.167Z,15.10
2019-03-25T19:55:34.348Z,11.87
2019-03-25T19:58:06.742Z,12.10
2019-03-25T20:00:42.164Z,10.20
2019-03-25T20:03:14.399Z,11.75
2019-03-25T20:05:46.570Z,10.27
2019-03-25T20:08:19.845Z,9.70
2019-03-25T20:10:52.185Z,11.77
2019-03-25T20:13:24.458Z,10.20
2019-03-25T20:15:56.746Z,13.00
2019-03-25T20:18:28.868Z,29.20
2019-03-25T20:21:01.189Z,9.85
2019-03-25T20:23:33.400Z,9.80
2019-03-25T20:26:06.490Z,10.55
2019-03-25T20:28:38.879Z,10.20
2019-03-25T20:31:11.197Z,10.45
2019-03-25T20:33:43.330Z,9.13
2019-03-25T20:36:15.634Z,7.42
2019-03-25T20:38:49.410Z,7.60
2019-03-25T20:41:22.154Z,7.20
2019-03-25T20:43:55.358Z,7.00
2019-03-25T20:46:27.756Z,6.50
2019-03-25T20:48:59.921Z,6.90
2019-03-25T20:51:32.196Z,7.33
2019-03-25T20:54:04.580Z,6.30
2019-03-25T20:56:36.884Z,7.50
2019-03-25T20:59:09.223Z,6.80
2019-03-25T21:01:41.583Z,7.30
2019-03-25T21:04:14.161Z,7.43
2019-03-25T21:06:46.461Z,7.37
2019-03-25T21:09:18.940Z,7.33
2019-03-25T21:11:51.100Z,8.43
2019-03-25T21:14:23.357Z,8.70
2019-03-25T21:16:55.883Z,8.53
2019-03-25T21:19:28.583Z,9.33
2019-03-25T21:22:00.809Z,8.43
2019-03-25T21:24:33.125Z,9.78
2019-03-25T21:27:06.506Z,9.48
2019-03-25T21:29:38.975Z,10.03
2019-03-25T21:32:11.331Z,10.03
2019-03-25T21:34:43.574Z,9.67
2019-03-25T21:37:15.815Z,11.67
2019-03-25T21:39:48.128Z,11.03
2019-03-25T21:42:20.586Z,9.88
2019-03-25T21:44:52.811Z,10.87
2019-03-25T21:47:26.499Z,10.03
2019-03-25T21:49:59.032Z,10.07
2019-03-25T21:52:31.540Z,10.03
2019-03-25T21:55:04.443Z,9.83
2019-03-25T21:57:36.795Z,9.60
2019-03-25T22:00:10.235Z,9.90
2019-03-25T22:02:42.877Z,10.17
2019-03-25T22:05:15.471Z,10.90
2019-03-25T22:07:47.893Z,10.17
2019-03-25T22:10:20.795Z,10.55
2019-03-25T22:12:53.397Z,10.23
2019-03-25T22:15:25.764Z,11.18
2019-03-25T22:17:58.942Z,10.67
2019-03-25T22:20:32.242Z,10.20
2019-03-25T22:23:05.240Z,10.77
2019-03-25T22:25:41.353Z,10.75
2019-03-25T22:28:15.577Z,10.13
2019-03-25T22:30:50.094Z,10.23
2019-03-25T22:33:26.101Z,10.40
2019-03-25T22:36:02.855Z,10.93
2019-03-25T22:38:36.628Z,10.87
2019-03-25T22:41:09.547Z,12.17
2019-03-25T22:43:42.068Z,11.17
2019-03-25T22:46:15.005Z,12.30
2019-03-25T22:48:47.717Z,12.23
2019-03-25T22:51:20.003Z,12.78
2019-03-25T22:53:55.348Z,12.73
2019-03-25T22:56:29.712Z,13.30
2019-03-25T22:59:01.944Z,12.43
2019-03-25T23:01:36.060Z,13.20
2019-03-25T23:04:10.591Z,13.20
2019-03-25T23:06:44.253Z,13.57
2019-03-25T23:09:18.441Z,14.33
2019-03-25T23:11:51.720Z,14.57
2019-03-25T23:14:27.467Z,14.93
2019-03-25T23:17:00.034Z,15.60
2019-03-25T23:19:33.536Z,16.30
2019-03-25T23:22:07.632Z,16.20
2019-03-25T23:24:40.907Z,16.87
2019-03-25T23:27:16.113Z,16.17
2019-03-25T23:29:50.040Z,16.63
2019-03-25T23:32:26.195Z,17.90
2019-03-25T23:35:00.410Z,18.07
2019-03-25T23:37:33.457Z,17.97
2019-03-25T23:40:07.264Z,23.63
2019-03-25T23:42:41.500Z,28.40
2019-03-25T23:45:15.802Z,29.53
2019-03-25T23:47:50.441Z,31.70
2019-03-25T23:50:25.863Z,30.73
2019-03-25T23:52:59.390Z,31.20
2019-03-25T23:55:32.605Z,31.67
2019-03-25T23:58:05.402Z,30.83
